sensor_id;sensor_type;location;lat;lon;timestamp;P1;durP1;ratioP1;P2;durP2;ratioP2
15905;SDS011;8051;50.820;4.884;2023-05-07T00:00:28;22.80;;;20.93;;
15905;SDS011;8051;50.820;4.884;2023-05-07T00:02:56;23.10;;;20.97;;
15905;SDS011;8051;50.820;4.884;2023-05-07T00:05:23;22.07;;;20.60;;
15905;SDS011;8051;50.820;4.884;2023-05-07T00:07:52;23.00;;;21.40;;
15905;SDS011;8051;50.820;4.884;2023-05-07T00:10:20;22.47;;;20.97;;
15905;SDS011;8051;50.820;4.884;2023-05-07T00:12:47;22.57;;;20.97;;
15905;SDS011;8051;50.820;4.884;2023-05-07T00:15:15;22.47;;;20.93;;
15905;SDS011;8051;50.820;4.884;2023-05-07T00:17:42;24.40;;;22.37;;
15905;SDS011;8051;50.820;4.884;2023-05-07T00:20:10;23.53;;;21.40;;
15905;SDS011;8051;50.820;4.884;2023-05-07T00:22:38;22.77;;;21.27;;
15905;SDS011;8051;50.820;4.884;2023-05-07T00:25:07;23.50;;;21.60;;
15905;SDS011;8051;50.820;4.884;2023-05-07T00:27:35;23.20;;;21.50;;
15905;SDS011;8051;50.820;4.884;2023-05-07T00:30:03;23.60;;;21.80;;
15905;SDS011;8051;50.820;4.884;2023-05-07T00:32:31;24.00;;;22.30;;
15905;SDS011;8051;50.820;4.884;2023-05-07T00:34:58;24.17;;;22.20;;
15905;SDS011;8051;50.820;4.884;2023-05-07T00:37:26;23.53;;;21.83;;
15905;SDS011;8051;50.820;4.884;2023-05-07T00:39:53;23.80;;;22.10;;
15905;SDS011;8051;50.820;4.884;2023-05-07T00:42:22;25.30;;;23.37;;
15905;SDS011;8051;50.820;4.884;2023-05-07T00:44:50;25.00;;;23.20;;
15905;SDS011;8051;50.820;4.884;2023-05-07T00:47:17;22.27;;;20.80;;
15905;SDS011;8051;50.820;4.884;2023-05-07T00:49:45;22.17;;;20.63;;
15905;SDS011;8051;50.820;4.884;2023-05-07T00:52:13;22.23;;;20.80;;
15905;SDS011;8051;50.820;4.884;2023-05-07T00:54:42;22.93;;;21.33;;
15905;SDS011;8051;50.820;4.884;2023-05-07T00:57:10;22.67;;;21.07;;
15905;SDS011;8051;50.820;4.884;2023-05-07T00:59:39;22.40;;;20.73;;
15905;SDS011;8051;50.820;4.884;2023-05-07T01:02:07;23.80;;;21.83;;
15905;SDS011;8051;50.820;4.884;2023-05-07T01:04:35;21.87;;;20.37;;
15905;SDS011;8051;50.820;4.884;2023-05-07T01:07:03;23.07;;;21.30;;
15905;SDS011;8051;50.820;4.884;2023-05-07T01:09:31;22.80;;;21.10;;
15905;SDS011;8051;50.820;4.884;2023-05-07T01:12:00;22.90;;;21.20;;
15905;SDS011;8051;50.820;4.884;2023-05-07T01:14:28;22.10;;;20.67;;
15905;SDS011;8051;50.820;4.884;2023-05-07T01:16:57;22.80;;;21.40;;
15905;SDS011;8051;50.820;4.884;2023-05-07T01:19:25;23.33;;;21.53;;
15905;SDS011;8051;50.820;4.884;2023-05-07T01:21:53;22.60;;;21.03;;
15905;SDS011;8051;50.820;4.884;2023-05-07T01:24:28;22.10;;;20.60;;
15905;SDS011;8051;50.820;4.884;2023-05-07T01:26:56;22.23;;;20.43;;
15905;SDS011;8051;50.820;4.884;2023-05-07T01:29:23;22.80;;;21.07;;
15905;SDS011;8051;50.820;4.884;2023-05-07T01:31:50;22.77;;;21.07;;
15905;SDS011;8051;50.820;4.884;2023-05-07T01:34:19;23.90;;;21.90;;
15905;SDS011;8051;50.820;4.884;2023-05-07T01:36:49;25.40;;;23.40;;
15905;SDS011;8051;50.820;4.884;2023-05-07T01:39:17;26.27;;;23.97;;
15905;SDS011;8051;50.820;4.884;2023-05-07T01:41:46;24.97;;;23.00;;
15905;SDS011;8051;50.820;4.884;2023-05-07T01:44:14;24.03;;;22.07;;
15905;SDS011;8051;50.820;4.884;2023-05-07T01:46:43;23.93;;;21.77;;
15905;SDS011;8051;50.820;4.884;2023-05-07T01:49:10;23.43;;;21.77;;
15905;SDS011;8051;50.820;4.884;2023-05-07T01:51:38;25.73;;;23.50;;
15905;SDS011;8051;50.820;4.884;2023-05-07T01:54:06;24.97;;;23.00;;
15905;SDS011;8051;50.820;4.884;2023-05-07T01:56:34;24.53;;;22.63;;
15905;SDS011;8051;50.820;4.884;2023-05-07T01:59:02;24.47;;;22.67;;
15905;SDS011;8051;50.820;4.884;2023-05-07T02:01:30;24.57;;;22.73;;
15905;SDS011;8051;50.820;4.884;2023-05-07T02:03:57;23.93;;;22.23;;
15905;SDS011;8051;50.820;4.884;2023-05-07T02:06:25;24.43;;;22.33;;
15905;SDS011;8051;50.820;4.884;2023-05-07T02:08:52;23.43;;;21.53;;
15905;SDS011;8051;50.820;4.884;2023-05-07T02:11:20;24.20;;;22.17;;
15905;SDS011;8051;50.820;4.884;2023-05-07T02:13:47;23.37;;;21.43;;
15905;SDS011;8051;50.820;4.884;2023-05-07T02:16:16;23.77;;;21.93;;
15905;SDS011;8051;50.820;4.884;2023-05-07T02:18:45;23.63;;;21.93;;
15905;SDS011;8051;50.820;4.884;2023-05-07T02:21:12;25.53;;;23.53;;
15905;SDS011;8051;50.820;4.884;2023-05-07T02:23:40;24.40;;;22.33;;
15905;SDS011;8051;50.820;4.884;2023-05-07T02:26:07;25.27;;;23.37;;
15905;SDS011;8051;50.820;4.884;2023-05-07T02:28:34;25.00;;;23.07;;
15905;SDS011;8051;50.820;4.884;2023-05-07T02:31:02;24.63;;;22.83;;
15905;SDS011;8051;50.820;4.884;2023-05-07T02:33:31;25.10;;;23.17;;
15905;SDS011;8051;50.820;4.884;2023-05-07T02:36:05;24.23;;;22.37;;
15905;SDS011;8051;50.820;4.884;2023-05-07T02:38:33;25.23;;;23.00;;
15905;SDS011;8051;50.820;4.884;2023-05-07T02:41:01;26.40;;;24.10;;
15905;SDS011;8051;50.820;4.884;2023-05-07T02:43:28;25.00;;;23.00;;
15905;SDS011;8051;50.820;4.884;2023-05-07T02:46:02;25.47;;;23.27;;
15905;SDS011;8051;50.820;4.884;2023-05-07T02:48:32;25.40;;;23.60;;
15905;SDS011;8051;50.820;4.884;2023-05-07T02:50:59;26.03;;;23.90;;
15905;SDS011;8051;50.820;4.884;2023-05-07T02:53:27;27.40;;;24.90;;
15905;SDS011;8051;50.820;4.884;2023-05-07T02:55:55;25.47;;;23.47;;
15905;SDS011;8051;50.820;4.884;2023-05-07T02:58:23;25.70;;;23.70;;
15905;SDS011;8051;50.820;4.884;2023-05-07T03:00:51;25.80;;;23.67;;
15905;SDS011;8051;50.820;4.884;2023-05-07T03:03:19;25.10;;;23.07;;
15905;SDS011;8051;50.820;4.884;2023-05-07T03:05:48;27.77;;;25.67;;
15905;SDS011;8051;50.820;4.884;2023-05-07T03:08:16;26.87;;;24.60;;
15905;SDS011;8051;50.820;4.884;2023-05-07T03:10:43;27.50;;;25.10;;
15905;SDS011;8051;50.820;4.884;2023-05-07T03:13:11;26.50;;;24.43;;
15905;SDS011;8051;50.820;4.884;2023-05-07T03:15:38;28.43;;;25.97;;
15905;SDS011;8051;50.820;4.884;2023-05-07T03:18:06;26.20;;;23.93;;
15905;SDS011;8051;50.820;4.884;2023-05-07T03:20:33;26.47;;;24.13;;
15905;SDS011;8051;50.820;4.884;2023-05-07T03:23:03;26.93;;;24.60;;
15905;SDS011;8051;50.820;4.884;2023-05-07T03:25:30;24.77;;;22.57;;
15905;SDS011;8051;50.820;4.884;2023-05-07T03:27:58;25.00;;;23.10;;
15905;SDS011;8051;50.820;4.884;2023-05-07T03:30:25;24.80;;;22.77;;
15905;SDS011;8051;50.820;4.884;2023-05-07T03:32:53;24.33;;;22.13;;
15905;SDS011;8051;50.820;4.884;2023-05-07T03:35:20;23.93;;;22.23;;
15905;SDS011;8051;50.820;4.884;2023-05-07T03:37:47;24.33;;;22.17;;
15905;SDS011;8051;50.820;4.884;2023-05-07T03:40:17;25.57;;;23.47;;
15905;SDS011;8051;50.820;4.884;2023-05-07T03:42:45;25.60;;;23.53;;
15905;SDS011;8051;50.820;4.884;2023-05-07T03:45:12;25.73;;;23.50;;
15905;SDS011;8051;50.820;4.884;2023-05-07T03:47:39;25.40;;;23.10;;
15905;SDS011;8051;50.820;4.884;2023-05-07T03:50:07;25.53;;;23.63;;
15905;SDS011;8051;50.820;4.884;2023-05-07T03:52:35;26.20;;;23.90;;
15905;SDS011;8051;50.820;4.884;2023-05-07T03:55:03;25.90;;;23.87;;
15905;SDS011;8051;50.820;4.884;2023-05-07T03:57:32;28.53;;;26.37;;
15905;SDS011;8051;50.820;4.884;2023-05-07T04:00:00;28.47;;;26.07;;
15905;SDS011;8051;50.820;4.884;2023-05-07T04:02:28;29.10;;;26.37;;
15905;SDS011;8051;50.820;4.884;2023-05-07T04:04:56;28.03;;;25.83;;
15905;SDS011;8051;50.820;4.884;2023-05-07T04:07:23;28.23;;;25.97;;
15905;SDS011;8051;50.820;4.884;2023-05-07T04:09:51;27.87;;;25.67;;
15905;SDS011;8051;50.820;4.884;2023-05-07T04:12:18;26.57;;;24.53;;
15905;SDS011;8051;50.820;4.884;2023-05-07T04:14:47;28.63;;;26.37;;
15905;SDS011;8051;50.820;4.884;2023-05-07T04:17:15;29.07;;;26.30;;
15905;SDS011;8051;50.820;4.884;2023-05-07T04:19:42;28.60;;;26.20;;
15905;SDS011;8051;50.820;4.884;2023-05-07T04:22:10;28.13;;;25.67;;
15905;SDS011;8051;50.820;4.884;2023-05-07T04:24:38;28.57;;;26.03;;
15905;SDS011;8051;50.820;4.884;2023-05-07T04:27:05;25.23;;;23.37;;
15905;SDS011;8051;50.820;4.884;2023-05-07T04:29:32;27.87;;;25.43;;
15905;SDS011;8051;50.820;4.884;2023-05-07T04:32:01;27.10;;;24.87;;
15905;SDS011;8051;50.820;4.884;2023-05-07T04:34:28;27.57;;;25.27;;
15905;SDS011;8051;50.820;4.884;2023-05-07T04:36:58;27.10;;;25.07;;
15905;SDS011;8051;50.820;4.884;2023-05-07T04:39:25;25.87;;;23.80;;
15905;SDS011;8051;50.820;4.884;2023-05-07T04:41:52;25.47;;;23.20;;
15905;SDS011;8051;50.820;4.884;2023-05-07T04:44:19;25.63;;;23.63;;
15905;SDS011;8051;50.820;4.884;2023-05-07T04:46:46;26.40;;;24.07;;
15905;SDS011;8051;50.820;4.884;2023-05-07T04:49:15;27.80;;;25.07;;
15905;SDS011;8051;50.820;4.884;2023-05-07T04:51:42;27.33;;;24.57;;
15905;SDS011;8051;50.820;4.884;2023-05-07T04:54:09;26.03;;;23.80;;
15905;SDS011;8051;50.820;4.884;2023-05-07T04:56:36;26.83;;;24.80;;
15905;SDS011;8051;50.820;4.884;2023-05-07T04:59:03;25.07;;;23.03;;
15905;SDS011;8051;50.820;4.884;2023-05-07T05:01:30;26.37;;;24.30;;
15905;SDS011;8051;50.820;4.884;2023-05-07T05:03:57;27.10;;;24.93;;
15905;SDS011;8051;50.820;4.884;2023-05-07T05:06:26;25.93;;;23.27;;
15905;SDS011;8051;50.820;4.884;2023-05-07T05:08:53;24.80;;;22.70;;
15905;SDS011;8051;50.820;4.884;2023-05-07T05:11:21;26.07;;;23.73;;
15905;SDS011;8051;50.820;4.884;2023-05-07T05:13:48;25.83;;;23.80;;
15905;SDS011;8051;50.820;4.884;2023-05-07T05:16:15;26.27;;;23.93;;
15905;SDS011;8051;50.820;4.884;2023-05-07T05:18:42;27.57;;;25.20;;
15905;SDS011;8051;50.820;4.884;2023-05-07T05:21:09;28.57;;;25.93;;
15905;SDS011;8051;50.820;4.884;2023-05-07T05:23:37;26.97;;;24.73;;
15905;SDS011;8051;50.820;4.884;2023-05-07T05:26:05;25.97;;;23.63;;
15905;SDS011;8051;50.820;4.884;2023-05-07T05:28:32;28.03;;;25.43;;
15905;SDS011;8051;50.820;4.884;2023-05-07T05:30:59;27.50;;;25.10;;
15905;SDS011;8051;50.820;4.884;2023-05-07T05:33:26;27.60;;;24.90;;
15905;SDS011;8051;50.820;4.884;2023-05-07T05:35:53;25.33;;;22.80;;
15905;SDS011;8051;50.820;4.884;2023-05-07T05:38:20;26.90;;;24.50;;
15905;SDS011;8051;50.820;4.884;2023-05-07T05:40:49;24.47;;;22.53;;
15905;SDS011;8051;50.820;4.884;2023-05-07T05:43:16;26.23;;;24.23;;
15905;SDS011;8051;50.820;4.884;2023-05-07T05:45:43;25.17;;;23.17;;
15905;SDS011;8051;50.820;4.884;2023-05-07T05:48:10;26.43;;;24.47;;
15905;SDS011;8051;50.820;4.884;2023-05-07T05:50:37;25.87;;;23.93;;
15905;SDS011;8051;50.820;4.884;2023-05-07T05:53:04;28.73;;;26.07;;
15905;SDS011;8051;50.820;4.884;2023-05-07T05:55:31;29.67;;;27.27;;
15905;SDS011;8051;50.820;4.884;2023-05-07T05:58:00;28.43;;;26.07;;
15905;SDS011;8051;50.820;4.884;2023-05-07T06:00:28;26.90;;;24.90;;
15905;SDS011;8051;50.820;4.884;2023-05-07T06:02:56;29.20;;;27.03;;
15905;SDS011;8051;50.820;4.884;2023-05-07T06:05:23;26.40;;;24.40;;
15905;SDS011;8051;50.820;4.884;2023-05-07T06:07:50;27.17;;;25.27;;
15905;SDS011;8051;50.820;4.884;2023-05-07T06:10:17;27.63;;;25.23;;
15905;SDS011;8051;50.820;4.884;2023-05-07T06:12:44;26.63;;;24.50;;
15905;SDS011;8051;50.820;4.884;2023-05-07T06:15:12;30.07;;;27.10;;
15905;SDS011;8051;50.820;4.884;2023-05-07T06:17:40;26.97;;;24.87;;
15905;SDS011;8051;50.820;4.884;2023-05-07T06:20:07;28.57;;;26.43;;
15905;SDS011;8051;50.820;4.884;2023-05-07T06:22:35;28.47;;;26.27;;
15905;SDS011;8051;50.820;4.884;2023-05-07T06:25:02;29.00;;;26.43;;
15905;SDS011;8051;50.820;4.884;2023-05-07T06:27:29;27.43;;;25.43;;
15905;SDS011;8051;50.820;4.884;2023-05-07T06:29:56;27.33;;;25.13;;
15905;SDS011;8051;50.820;4.884;2023-05-07T06:32:25;26.67;;;24.83;;
15905;SDS011;8051;50.820;4.884;2023-05-07T06:34:52;27.63;;;25.73;;
15905;SDS011;8051;50.820;4.884;2023-05-07T06:37:19;27.70;;;25.27;;
15905;SDS011;8051;50.820;4.884;2023-05-07T06:39:46;26.60;;;24.60;;
15905;SDS011;8051;50.820;4.884;2023-05-07T06:42:13;28.53;;;26.43;;
15905;SDS011;8051;50.820;4.884;2023-05-07T06:44:40;28.33;;;26.13;;
15905;SDS011;8051;50.820;4.884;2023-05-07T06:47:07;27.33;;;25.13;;
15905;SDS011;8051;50.820;4.884;2023-05-07T06:49:35;27.27;;;25.17;;
15905;SDS011;8051;50.820;4.884;2023-05-07T06:52:02;28.70;;;26.30;;
15905;SDS011;8051;50.820;4.884;2023-05-07T06:54:30;27.30;;;25.23;;
15905;SDS011;8051;50.820;4.884;2023-05-07T06:56:57;26.90;;;24.83;;
15905;SDS011;8051;50.820;4.884;2023-05-07T06:59:24;26.33;;;24.53;;
15905;SDS011;8051;50.820;4.884;2023-05-07T07:01:51;27.77;;;25.63;;
15905;SDS011;8051;50.820;4.884;2023-05-07T07:04:18;26.90;;;24.73;;
15905;SDS011;8051;50.820;4.884;2023-05-07T07:06:48;26.83;;;24.83;;
15905;SDS011;8051;50.820;4.884;2023-05-07T07:09:15;26.37;;;24.27;;
15905;SDS011;8051;50.820;4.884;2023-05-07T07:11:42;24.10;;;22.30;;
15905;SDS011;8051;50.820;4.884;2023-05-07T07:14:10;25.43;;;23.00;;
15905;SDS011;8051;50.820;4.884;2023-05-07T07:16:37;24.57;;;22.67;;
15905;SDS011;8051;50.820;4.884;2023-05-07T07:19:04;25.73;;;23.33;;
15905;SDS011;8051;50.820;4.884;2023-05-07T07:21:31;24.77;;;22.97;;
15905;SDS011;8051;50.820;4.884;2023-05-07T07:23:59;26.67;;;23.87;;
15905;SDS011;8051;50.820;4.884;2023-05-07T07:26:26;24.97;;;22.77;;
15905;SDS011;8051;50.820;4.884;2023-05-07T07:28:53;24.53;;;22.40;;
15905;SDS011;8051;50.820;4.884;2023-05-07T07:31:20;25.60;;;23.43;;
15905;SDS011;8051;50.820;4.884;2023-05-07T07:33:47;25.43;;;23.53;;
15905;SDS011;8051;50.820;4.884;2023-05-07T07:36:15;23.33;;;21.73;;
15905;SDS011;8051;50.820;4.884;2023-05-07T07:38:42;23.67;;;22.13;;
15905;SDS011;8051;50.820;4.884;2023-05-07T07:41:10;23.47;;;21.97;;
15905;SDS011;8051;50.820;4.884;2023-05-07T07:43:37;23.80;;;22.20;;
15905;SDS011;8051;50.820;4.884;2023-05-07T07:46:05;22.23;;;20.53;;
15905;SDS011;8051;50.820;4.884;2023-05-07T07:48:32;23.43;;;21.43;;
15905;SDS011;8051;50.820;4.884;2023-05-07T07:50:59;22.30;;;20.67;;
15905;SDS011;8051;50.820;4.884;2023-05-07T07:53:26;24.43;;;22.33;;
15905;SDS011;8051;50.820;4.884;2023-05-07T07:55:53;25.47;;;23.43;;
15905;SDS011;8051;50.820;4.884;2023-05-07T07:58:22;25.63;;;23.47;;
15905;SDS011;8051;50.820;4.884;2023-05-07T08:00:50;22.33;;;20.63;;
15905;SDS011;8051;50.820;4.884;2023-05-07T08:03:17;24.57;;;22.53;;
15905;SDS011;8051;50.820;4.884;2023-05-07T08:05:44;23.93;;;22.30;;
15905;SDS011;8051;50.820;4.884;2023-05-07T08:08:11;22.67;;;21.00;;
15905;SDS011;8051;50.820;4.884;2023-05-07T08:10:39;23.23;;;21.33;;
15905;SDS011;8051;50.820;4.884;2023-05-07T08:13:06;24.80;;;23.10;;
15905;SDS011;8051;50.820;4.884;2023-05-07T08:15:34;24.40;;;22.60;;
15905;SDS011;8051;50.820;4.884;2023-05-07T08:18:02;23.93;;;22.30;;
15905;SDS011;8051;50.820;4.884;2023-05-07T08:20:29;24.33;;;22.53;;
15905;SDS011;8051;50.820;4.884;2023-05-07T08:22:56;25.40;;;23.20;;
15905;SDS011;8051;50.820;4.884;2023-05-07T08:25:23;25.80;;;23.70;;
15905;SDS011;8051;50.820;4.884;2023-05-07T08:27:50;25.90;;;23.53;;
15905;SDS011;8051;50.820;4.884;2023-05-07T08:30:17;25.50;;;23.60;;
15905;SDS011;8051;50.820;4.884;2023-05-07T08:32:46;23.23;;;21.70;;
15905;SDS011;8051;50.820;4.884;2023-05-07T08:35:13;22.57;;;21.00;;
15905;SDS011;8051;50.820;4.884;2023-05-07T08:37:40;21.70;;;20.30;;
15905;SDS011;8051;50.820;4.884;2023-05-07T08:40:07;22.90;;;21.37;;
15905;SDS011;8051;50.820;4.884;2023-05-07T08:42:35;23.23;;;21.30;;
15905;SDS011;8051;50.820;4.884;2023-05-07T08:45:04;23.03;;;21.50;;
15905;SDS011;8051;50.820;4.884;2023-05-07T08:47:38;24.87;;;23.00;;
15905;SDS011;8051;50.820;4.884;2023-05-07T08:50:11;23.20;;;21.70;;
15905;SDS011;8051;50.820;4.884;2023-05-07T08:52:38;22.50;;;20.83;;
15905;SDS011;8051;50.820;4.884;2023-05-07T08:55:06;24.43;;;22.47;;
15905;SDS011;8051;50.820;4.884;2023-05-07T08:57:34;23.10;;;21.57;;
15905;SDS011;8051;50.820;4.884;2023-05-07T09:00:02;23.63;;;21.70;;
15905;SDS011;8051;50.820;4.884;2023-05-07T09:02:29;21.83;;;19.97;;
15905;SDS011;8051;50.820;4.884;2023-05-07T09:04:56;24.23;;;22.23;;
15905;SDS011;8051;50.820;4.884;2023-05-07T09:07:25;24.60;;;22.67;;
15905;SDS011;8051;50.820;4.884;2023-05-07T09:09:52;23.80;;;22.10;;
15905;SDS011;8051;50.820;4.884;2023-05-07T09:12:20;21.80;;;20.37;;
15905;SDS011;8051;50.820;4.884;2023-05-07T09:14:47;23.43;;;21.67;;
15905;SDS011;8051;50.820;4.884;2023-05-07T09:17:15;23.37;;;21.47;;
15905;SDS011;8051;50.820;4.884;2023-05-07T09:19:43;22.47;;;20.80;;
15905;SDS011;8051;50.820;4.884;2023-05-07T09:22:11;21.00;;;19.50;;
15905;SDS011;8051;50.820;4.884;2023-05-07T09:24:40;24.07;;;21.67;;
15905;SDS011;8051;50.820;4.884;2023-05-07T09:27:07;22.83;;;21.17;;
15905;SDS011;8051;50.820;4.884;2023-05-07T09:29:38;22.77;;;20.83;;
15905;SDS011;8051;50.820;4.884;2023-05-07T09:32:06;22.00;;;20.30;;
15905;SDS011;8051;50.820;4.884;2023-05-07T09:34:34;23.30;;;21.17;;
15905;SDS011;8051;50.820;4.884;2023-05-07T09:37:02;21.80;;;20.20;;
15905;SDS011;8051;50.820;4.884;2023-05-07T09:39:39;21.87;;;20.07;;
15905;SDS011;8051;50.820;4.884;2023-05-07T09:42:07;20.20;;;18.77;;
15905;SDS011;8051;50.820;4.884;2023-05-07T09:44:35;19.30;;;17.97;;
15905;SDS011;8051;50.820;4.884;2023-05-07T09:47:04;19.93;;;18.37;;
15905;SDS011;8051;50.820;4.884;2023-05-07T09:49:33;20.53;;;18.70;;
15905;SDS011;8051;50.820;4.884;2023-05-07T09:52:02;20.13;;;18.50;;
15905;SDS011;8051;50.820;4.884;2023-05-07T09:54:31;19.87;;;18.57;;
15905;SDS011;8051;50.820;4.884;2023-05-07T09:57:01;21.30;;;19.70;;
15905;SDS011;8051;50.820;4.884;2023-05-07T09:59:29;20.07;;;18.53;;
15905;SDS011;8051;50.820;4.884;2023-05-07T10:01:59;20.07;;;18.67;;
15905;SDS011;8051;50.820;4.884;2023-05-07T10:04:26;19.17;;;17.57;;
15905;SDS011;8051;50.820;4.884;2023-05-07T10:06:54;19.13;;;17.60;;
15905;SDS011;8051;50.820;4.884;2023-05-07T10:09:21;18.63;;;16.93;;
15905;SDS011;8051;50.820;4.884;2023-05-07T10:11:50;20.70;;;18.90;;
15905;SDS011;8051;50.820;4.884;2023-05-07T10:14:21;20.83;;;19.17;;
15905;SDS011;8051;50.820;4.884;2023-05-07T10:16:48;20.10;;;18.60;;
15905;SDS011;8051;50.820;4.884;2023-05-07T10:19:15;20.27;;;18.60;;
15905;SDS011;8051;50.820;4.884;2023-05-07T10:21:44;18.93;;;17.33;;
15905;SDS011;8051;50.820;4.884;2023-05-07T10:24:19;19.40;;;17.53;;
15905;SDS011;8051;50.820;4.884;2023-05-07T10:26:49;20.27;;;18.23;;
15905;SDS011;8051;50.820;4.884;2023-05-07T10:29:18;17.27;;;15.93;;
15905;SDS011;8051;50.820;4.884;2023-05-07T10:31:56;19.57;;;17.93;;
15905;SDS011;8051;50.820;4.884;2023-05-07T10:34:28;19.57;;;17.97;;
15905;SDS011;8051;50.820;4.884;2023-05-07T10:37:01;17.87;;;16.47;;
15905;SDS011;8051;50.820;4.884;2023-05-07T10:39:29;18.93;;;17.33;;
15905;SDS011;8051;50.820;4.884;2023-05-07T10:41:57;18.83;;;17.40;;
15905;SDS011;8051;50.820;4.884;2023-05-07T10:44:34;18.57;;;17.03;;
15905;SDS011;8051;50.820;4.884;2023-05-07T10:47:09;18.70;;;17.37;;
15905;SDS011;8051;50.820;4.884;2023-05-07T10:49:37;18.47;;;17.13;;
15905;SDS011;8051;50.820;4.884;2023-05-07T10:52:39;18.60;;;17.07;;
15905;SDS011;8051;50.820;4.884;2023-05-07T10:55:19;20.17;;;18.37;;
15905;SDS011;8051;50.820;4.884;2023-05-07T10:57:47;19.27;;;17.67;;
15905;SDS011;8051;50.820;4.884;2023-05-07T11:03:10;18.87;;;17.17;;
15905;SDS011;8051;50.820;4.884;2023-05-07T11:05:37;20.57;;;18.90;;
15905;SDS011;8051;50.820;4.884;2023-05-07T11:08:04;19.37;;;17.60;;
15905;SDS011;8051;50.820;4.884;2023-05-07T11:10:47;18.57;;;17.27;;
15905;SDS011;8051;50.820;4.884;2023-05-07T11:13:15;19.77;;;18.37;;
15905;SDS011;8051;50.820;4.884;2023-05-07T11:15:45;20.90;;;19.50;;
15905;SDS011;8051;50.820;4.884;2023-05-07T11:18:13;21.93;;;20.07;;
15905;SDS011;8051;50.820;4.884;2023-05-07T11:20:46;22.43;;;20.70;;
15905;SDS011;8051;50.820;4.884;2023-05-07T11:26:42;20.13;;;18.77;;
15905;SDS011;8051;50.820;4.884;2023-05-07T11:29:11;20.47;;;18.97;;
15905;SDS011;8051;50.820;4.884;2023-05-07T11:31:40;20.93;;;19.43;;
15905;SDS011;8051;50.820;4.884;2023-05-07T11:34:07;21.20;;;19.60;;
15905;SDS011;8051;50.820;4.884;2023-05-07T11:36:35;21.37;;;19.90;;
15905;SDS011;8051;50.820;4.884;2023-05-07T11:39:25;21.00;;;19.63;;
15905;SDS011;8051;50.820;4.884;2023-05-07T11:41:54;19.97;;;18.57;;
15905;SDS011;8051;50.820;4.884;2023-05-07T11:44:21;20.33;;;18.77;;
15905;SDS011;8051;50.820;4.884;2023-05-07T11:46:49;19.60;;;18.10;;
15905;SDS011;8051;50.820;4.884;2023-05-07T11:49:17;19.13;;;17.80;;
15905;SDS011;8051;50.820;4.884;2023-05-07T11:51:44;21.27;;;19.97;;
15905;SDS011;8051;50.820;4.884;2023-05-07T11:54:11;21.30;;;19.80;;
15905;SDS011;8051;50.820;4.884;2023-05-07T11:56:43;21.37;;;19.70;;
15905;SDS011;8051;50.820;4.884;2023-05-07T11:59:12;19.23;;;18.00;;
15905;SDS011;8051;50.820;4.884;2023-05-07T12:01:45;19.97;;;18.67;;
15905;SDS011;8051;50.820;4.884;2023-05-07T12:04:16;20.40;;;18.80;;
15905;SDS011;8051;50.820;4.884;2023-05-07T12:06:46;20.67;;;19.13;;
15905;SDS011;8051;50.820;4.884;2023-05-07T12:09:13;20.40;;;19.00;;
15905;SDS011;8051;50.820;4.884;2023-05-07T12:11:40;19.70;;;18.30;;
15905;SDS011;8051;50.820;4.884;2023-05-07T12:14:12;20.37;;;18.80;;
15905;SDS011;8051;50.820;4.884;2023-05-07T12:16:40;20.80;;;19.30;;
15905;SDS011;8051;50.820;4.884;2023-05-07T12:19:08;20.83;;;19.30;;
15905;SDS011;8051;50.820;4.884;2023-05-07T12:21:39;21.37;;;19.87;;
15905;SDS011;8051;50.820;4.884;2023-05-07T12:24:06;21.40;;;20.00;;
15905;SDS011;8051;50.820;4.884;2023-05-07T12:26:37;20.47;;;19.00;;
15905;SDS011;8051;50.820;4.884;2023-05-07T12:29:05;21.20;;;19.73;;
15905;SDS011;8051;50.820;4.884;2023-05-07T12:31:33;23.27;;;21.17;;
15905;SDS011;8051;50.820;4.884;2023-05-07T12:34:00;22.70;;;20.90;;
15905;SDS011;8051;50.820;4.884;2023-05-07T12:36:27;21.67;;;20.07;;
15905;SDS011;8051;50.820;4.884;2023-05-07T12:39:05;23.57;;;21.70;;
15905;SDS011;8051;50.820;4.884;2023-05-07T12:41:35;22.47;;;20.87;;
15905;SDS011;8051;50.820;4.884;2023-05-07T12:44:18;22.47;;;20.90;;
15905;SDS011;8051;50.820;4.884;2023-05-07T12:46:46;22.33;;;20.57;;
15905;SDS011;8051;50.820;4.884;2023-05-07T12:49:13;22.63;;;21.00;;
15905;SDS011;8051;50.820;4.884;2023-05-07T12:51:40;22.37;;;20.77;;
15905;SDS011;8051;50.820;4.884;2023-05-07T12:54:09;21.97;;;20.37;;
15905;SDS011;8051;50.820;4.884;2023-05-07T12:56:36;22.30;;;20.60;;
15905;SDS011;8051;50.820;4.884;2023-05-07T12:59:03;22.73;;;21.13;;
15905;SDS011;8051;50.820;4.884;2023-05-07T13:01:30;23.53;;;21.90;;
15905;SDS011;8051;50.820;4.884;2023-05-07T13:04:00;23.77;;;22.10;;
15905;SDS011;8051;50.820;4.884;2023-05-07T13:06:29;23.17;;;21.53;;
15905;SDS011;8051;50.820;4.884;2023-05-07T13:08:57;23.37;;;21.77;;
15905;SDS011;8051;50.820;4.884;2023-05-07T13:11:25;23.70;;;22.20;;
15905;SDS011;8051;50.820;4.884;2023-05-07T13:13:52;22.50;;;21.00;;
15905;SDS011;8051;50.820;4.884;2023-05-07T13:16:19;21.30;;;20.10;;
15905;SDS011;8051;50.820;4.884;2023-05-07T13:18:46;24.47;;;22.77;;
15905;SDS011;8051;50.820;4.884;2023-05-07T13:21:13;23.63;;;21.97;;
15905;SDS011;8051;50.820;4.884;2023-05-07T13:23:40;23.27;;;21.70;;
15905;SDS011;8051;50.820;4.884;2023-05-07T13:26:07;21.40;;;20.00;;
15905;SDS011;8051;50.820;4.884;2023-05-07T13:28:36;22.73;;;21.13;;
15905;SDS011;8051;50.820;4.884;2023-05-07T13:31:03;22.17;;;20.67;;
15905;SDS011;8051;50.820;4.884;2023-05-07T13:33:30;21.23;;;19.90;;
15905;SDS011;8051;50.820;4.884;2023-05-07T13:35:57;23.77;;;22.07;;
15905;SDS011;8051;50.820;4.884;2023-05-07T13:38:25;21.67;;;20.30;;
15905;SDS011;8051;50.820;4.884;2023-05-07T13:40:52;22.30;;;20.80;;
15905;SDS011;8051;50.820;4.884;2023-05-07T13:43:20;23.43;;;21.53;;
15905;SDS011;8051;50.820;4.884;2023-05-07T13:45:49;23.20;;;21.50;;
15905;SDS011;8051;50.820;4.884;2023-05-07T13:48:16;22.37;;;20.87;;
15905;SDS011;8051;50.820;4.884;2023-05-07T13:50:44;22.57;;;21.00;;
15905;SDS011;8051;50.820;4.884;2023-05-07T13:53:11;22.80;;;21.40;;
15905;SDS011;8051;50.820;4.884;2023-05-07T13:55:40;23.80;;;22.10;;
15905;SDS011;8051;50.820;4.884;2023-05-07T13:58:08;22.53;;;21.23;;
15905;SDS011;8051;50.820;4.884;2023-05-07T14:00:35;22.53;;;21.03;;
15905;SDS011;8051;50.820;4.884;2023-05-07T14:03:05;22.00;;;20.47;;
15905;SDS011;8051;50.820;4.884;2023-05-07T14:05:32;21.60;;;20.10;;
15905;SDS011;8051;50.820;4.884;2023-05-07T14:08:00;22.33;;;20.90;;
15905;SDS011;8051;50.820;4.884;2023-05-07T14:10:28;22.60;;;21.10;;
15905;SDS011;8051;50.820;4.884;2023-05-07T14:12:57;22.60;;;21.17;;
15905;SDS011;8051;50.820;4.884;2023-05-07T14:15:24;22.23;;;20.80;;
15905;SDS011;8051;50.820;4.884;2023-05-07T14:17:52;23.07;;;21.57;;
15905;SDS011;8051;50.820;4.884;2023-05-07T14:20:20;23.07;;;21.37;;
15905;SDS011;8051;50.820;4.884;2023-05-07T14:22:48;22.30;;;20.80;;
15905;SDS011;8051;50.820;4.884;2023-05-07T14:25:15;22.80;;;21.30;;
15905;SDS011;8051;50.820;4.884;2023-05-07T14:27:43;22.70;;;21.30;;
15905;SDS011;8051;50.820;4.884;2023-05-07T14:30:11;22.50;;;20.60;;
15905;SDS011;8051;50.820;4.884;2023-05-07T14:32:38;22.30;;;20.80;;
15905;SDS011;8051;50.820;4.884;2023-05-07T14:35:06;21.83;;;20.43;;
15905;SDS011;8051;50.820;4.884;2023-05-07T14:37:35;23.03;;;21.53;;
15905;SDS011;8051;50.820;4.884;2023-05-07T14:40:03;22.37;;;20.87;;
15905;SDS011;8051;50.820;4.884;2023-05-07T14:42:31;21.47;;;20.17;;
15905;SDS011;8051;50.820;4.884;2023-05-07T14:44:59;22.10;;;20.80;;